Time;durP1;ratioP1;P1;durP2;ratioP2;P2;SDS_P1;SDS_P2;PMS_P1;PMS_P2;Temp;Humidity;BMP_temperature;BMP_pressure;BME280_temperature;BME280_humidity;BME280_pressure;Samples;Min_cycle;Max_cycle;Signal;HPM_P1;HPM_P2
2023/12/09 00:01:42;;;;;;;23.02;6.68;;;;;;;1.88;100.00;99944.94;4994094;28;20123;-57
2023/12/09 00:04:12;;;;;;;22.05;6.60;;;;;;;1.94;100.00;99947.59;5002119;28;20049;-58
2023/12/09 00:06:48;;;;;;;29.75;7.57;;;;;;;1.87;100.00;99943.19;4994093;28;20062;-59
2023/12/09 00:09:20;;;;;;;30.27;8.35;;;;;;;1.96;100.00;99948.50;5002776;28;20045;-57
2023/12/09 00:11:51;;;;;;;21.92;8.35;;;;;;;2.00;100.00;99939.97;4993405;28;20049;-58
2023/12/09 00:14:22;;;;;;;18.55;6.65;;;;;;;2.04;100.00;99936.56;5003470;28;20072;-60
2023/12/09 00:16:53;;;;;;;27.25;7.25;;;;;;;2.02;100.00;99933.13;4993450;28;20134;-57
2023/12/09 00:19:23;;;;;;;21.58;7.50;;;;;;;2.03;100.00;99934.84;5003488;28;20084;-58
2023/12/09 00:21:54;;;;;;;28.45;7.07;;;;;;;2.02;100.00;99933.13;4992784;28;20045;-59
2023/12/09 00:24:26;;;;;;;22.63;6.70;;;;;;;1.99;100.00;99933.06;5004201;28;20041;-57
2023/12/09 00:26:56;;;;;;;26.30;7.07;;;;;;;1.99;100.00;99922.75;4988572;28;20037;-58
2023/12/09 00:29:27;;;;;;;21.08;6.30;;;;;;;1.99;100.00;99925.34;4990267;28;20396;-59
2023/12/09 00:31:57;;;;;;;24.23;6.70;;;;;;;1.97;100.00;99924.44;5003439;28;20049;-57
2023/12/09 00:34:28;;;;;;;20.65;6.53;;;;;;;1.98;100.00;99923.63;4994022;28;20056;-59
2023/12/09 00:36:58;;;;;;;26.75;7.95;;;;;;;1.83;100.00;99895.06;5003458;28;20132;-57
2023/12/09 00:39:31;;;;;;;25.25;6.93;;;;;;;1.97;100.00;99929.59;4994206;28;20053;-58
2023/12/09 00:42:02;;;;;;;22.27;6.55;;;;;;;1.96;100.00;99921.88;5003922;28;20052;-60
2023/12/09 00:44:33;;;;;;;28.67;6.85;;;;;;;1.97;100.00;99914.13;4993611;28;20065;-58
2023/12/09 00:47:03;;;;;;;25.42;7.07;;;;;;;1.94;100.00;99908.94;5003963;28;20415;-59
2023/12/09 00:49:34;;;;;;;24.10;6.63;;;;;;;1.96;100.00;99899.53;4988296;28;20064;-59
2023/12/09 00:52:05;;;;;;;24.80;7.63;;;;;;;2.00;100.00;99896.16;5023043;28;20048;-59
2023/12/09 00:54:37;;;;;;;26.13;7.82;;;;;;;2.03;100.00;99893.59;5013208;28;20064;-58
2023/12/09 00:57:07;;;;;;;23.33;7.35;;;;;;;2.02;100.00;99891.91;5023237;28;20045;-58
2023/12/09 00:59:38;;;;;;;19.15;7.70;;;;;;;1.99;100.00;99886.69;5013132;28;20069;-59
2023/12/09 01:02:08;;;;;;;24.17;7.40;;;;;;;1.99;100.00;99880.66;5023239;28;20514;-60
2023/12/09 01:04:39;;;;;;;32.65;7.22;;;;;;;1.97;100.00;99866.91;5013032;28;20063;-57
2023/12/09 01:07:09;;;;;;;22.23;7.45;;;;;;;2.06;100.00;99878.19;5023084;28;20053;-60
2023/12/09 01:09:42;;;;;;;30.38;7.80;;;;;;;2.09;100.00;99862.75;5013408;28;20083;-59
2023/12/09 01:12:12;;;;;;;28.92;9.38;;;;;;;2.09;100.00;99844.69;5022215;28;20465;-59
2023/12/09 01:14:42;;;;;;;28.38;7.55;;;;;;;2.14;100.00;99844.75;5013085;28;20059;-59
2023/12/09 01:17:13;;;;;;;25.88;8.05;;;;;;;2.20;100.00;99837.09;5022720;28;20064;-61
2023/12/09 01:19:44;;;;;;;22.30;8.15;;;;;;;2.31;100.00;99838.06;5012252;28;20064;-59
2023/12/09 01:22:14;;;;;;;23.95;8.95;;;;;;;2.38;100.00;99828.69;5032586;28;20960;-57
2023/12/09 01:24:47;;;;;;;31.73;9.13;;;;;;;2.44;100.00;99812.41;5012752;28;20063;-59
2023/12/09 01:27:17;;;;;;;21.30;8.73;;;;;;;2.50;100.00;99808.19;5023232;28;20103;-59
2023/12/09 01:29:47;;;;;;;23.15;9.82;;;;;;;2.56;100.00;99797.91;5012319;28;20553;-59
2023/12/09 01:32:18;;;;;;;35.25;17.85;;;;;;;2.62;100.00;99789.38;5022744;28;20075;-60
2023/12/09 01:34:48;;;;;;;34.88;11.02;;;;;;;2.72;100.00;99782.53;5012252;28;20483;-58
2023/12/09 01:37:19;;;;;;;25.38;8.52;;;;;;;2.79;100.00;99774.00;5021753;28;20136;-57
2023/12/09 01:39:51;;;;;;;25.80;8.90;;;;;;;2.83;100.00;99764.59;5012690;28;20044;-59
2023/12/09 01:42:21;;;;;;;22.60;7.97;;;;;;;2.90;100.00;99749.16;5023687;28;20175;-59
2023/12/09 01:44:52;;;;;;;24.25;8.40;;;;;;;2.91;100.00;99744.84;5013093;28;20144;-58
2023/12/09 01:47:22;;;;;;;32.85;9.23;;;;;;;2.90;100.00;99746.56;5023026;28;20717;-60
2023/12/09 01:49:53;;;;;;;24.30;8.23;;;;;;;2.89;100.00;99744.81;5012938;28;20057;-62
2023/12/09 01:52:25;;;;;;;26.50;8.20;;;;;;;2.81;100.00;99731.88;5022738;28;20139;-60
2023/12/09 01:54:57;;;;;;;22.95;8.05;;;;;;;2.76;100.00;99722.38;5012101;28;20061;-57
2023/12/09 01:57:29;;;;;;;26.10;8.57;;;;;;;2.67;100.00;99714.56;5012644;28;20053;-60
2023/12/09 01:59:59;;;;;;;34.58;8.70;;;;;;;2.65;100.00;99724.03;5022603;28;20053;-58
2023/12/09 02:02:30;;;;;;;20.02;8.00;;;;;;;2.62;100.00;99713.69;5012307;28;20523;-57
2023/12/09 02:05:02;;;;;;;26.80;9.73;;;;;;;2.45;100.00;99686.06;5002635;28;20077;-59
2023/12/09 02:07:34;;;;;;;23.95;9.10;;;;;;;2.55;100.00;99703.34;4992789;28;20053;-59
2023/12/09 02:10:07;;;;;;;21.38;8.57;;;;;;;2.54;100.00;99685.25;5003001;28;20061;-58
2023/12/09 02:12:44;;;;;;;33.90;10.57;;;;;;;2.56;100.00;99676.69;4993002;28;20108;-59
2023/12/09 02:15:23;;;;;;;30.33;9.40;;;;;;;2.54;100.00;99673.22;5003260;28;20050;-58
2023/12/09 02:17:59;;;;;;;23.67;9.32;;;;;;;2.46;100.00;99646.53;4993921;28;20049;-60
2023/12/09 02:20:31;;;;;;;23.50;9.15;;;;;;;2.55;100.00;99651.75;5012544;28;20545;-59
2023/12/09 02:23:07;;;;;;;31.48;9.18;;;;;;;2.56;100.00;99643.16;5023889;28;20495;-58
2023/12/09 02:25:39;;;;;;;31.55;9.32;;;;;;;2.50;100.00;99627.66;5015974;28;20052;-59
2023/12/09 02:28:15;;;;;;;34.30;9.93;;;;;;;2.54;100.00;99629.38;5019769;28;20053;-59
2023/12/09 02:30:50;;;;;;;32.80;10.95;;;;;;;2.52;100.00;99610.47;4996520;28;20540;-58
2023/12/09 02:33:23;;;;;;;33.85;9.50;;;;;;;2.51;100.00;99603.59;5006713;28;20133;-58
2023/12/09 02:35:55;;;;;;;24.05;9.30;;;;;;;2.64;100.00;99595.91;4995533;28;20057;-60
2023/12/09 02:38:29;;;;;;;35.35;10.07;;;;;;;2.65;100.00;99583.03;5002630;28;20083;-57
2023/12/09 02:41:00;;;;;;;34.72;11.05;;;;;;;2.69;100.00;99587.31;5005804;28;20103;-60
2023/12/09 02:43:32;;;;;;;33.60;9.77;;;;;;;2.70;100.00;99583.06;4995837;28;20132;-58
2023/12/09 02:46:02;;;;;;;31.67;10.02;;;;;;;2.42;100.00;99536.50;5005803;28;20053;-61
2023/12/09 02:48:33;;;;;;;29.77;9.93;;;;;;;2.66;100.00;99573.56;5013663;28;20164;-59
2023/12/09 02:51:03;;;;;;;33.97;10.27;;;;;;;2.59;100.00;99560.63;5022069;28;20098;-58
2023/12/09 02:53:35;;;;;;;31.08;9.93;;;;;;;2.38;100.00;99545.06;5000583;28;20053;-59
2023/12/09 02:56:07;;;;;;;31.70;10.25;;;;;;;2.57;100.00;99562.38;5013054;28;20565;-58
2023/12/09 02:58:37;;;;;;;27.13;9.73;;;;;;;2.55;100.00;99556.34;5004627;28;20430;-58
2023/12/09 03:01:08;;;;;;;31.45;10.02;;;;;;;2.47;100.00;99550.28;5016790;28;20055;-60
2023/12/09 03:03:38;;;;;;;28.23;9.60;;;;;;;2.55;100.00;99543.44;5002746;28;20041;-58
2023/12/09 03:06:09;;;;;;;28.52;10.35;;;;;;;2.56;100.00;99537.41;5013339;28;20045;-59
2023/12/09 03:08:41;;;;;;;32.53;9.98;;;;;;;2.52;100.00;99512.47;5000575;28;20045;-59
2023/12/09 03:11:11;;;;;;;33.28;10.02;;;;;;;2.35;100.00;99493.50;5012881;28;20053;-59
2023/12/09 03:13:42;;;;;;;28.63;9.73;;;;;;;2.57;100.00;99526.25;5003414;28;20050;-59
2023/12/09 03:16:12;;;;;;;29.25;10.07;;;;;;;2.58;100.00;99517.66;5012963;28;20076;-60
2023/12/09 03:18:43;;;;;;;32.83;10.85;;;;;;;2.61;100.00;99513.38;5014470;28;20056;-59
2023/12/09 03:21:16;;;;;;;36.75;10.13;;;;;;;2.53;100.00;99484.97;5024308;28;20045;-60
2023/12/09 03:23:48;;;;;;;28.13;9.20;;;;;;;2.64;100.00;99490.16;5010112;28;20064;-59
2023/12/09 03:26:20;;;;;;;30.17;10.32;;;;;;;2.64;100.00;99490.16;5024682;28;20049;-59
2023/12/09 03:28:51;;;;;;;29.45;8.48;;;;;;;2.66;100.00;99485.88;5014765;28;20045;-61
2023/12/09 03:31:22;;;;;;;28.55;8.98;;;;;;;2.63;100.00;99478.97;5025106;28;20041;-60
2023/12/09 03:33:52;;;;;;;25.17;10.05;;;;;;;2.67;100.00;99480.72;5012725;28;20138;-59
2023/12/09 03:36:23;;;;;;;26.67;10.15;;;;;;;2.71;100.00;99460.94;5016382;28;20045;-60
2023/12/09 03:38:55;;;;;;;30.23;9.82;;;;;;;2.74;100.00;99454.06;5012054;28;20124;-59
2023/12/09 03:41:26;;;;;;;30.65;10.88;;;;;;;2.76;100.00;99459.25;5020271;28;20498;-59
2023/12/09 03:43:56;;;;;;;27.50;12.13;;;;;;;2.72;100.00;99457.50;5024646;28;20049;-59
2023/12/09 03:46:27;;;;;;;24.40;9.55;;;;;;;2.71;100.00;99451.47;5015356;28;20049;-58
2023/12/09 03:48:57;;;;;;;24.48;10.23;;;;;;;2.75;100.00;99442.91;5024438;28;20535;-59
2023/12/09 03:51:28;;;;;;;24.90;8.55;;;;;;;2.76;100.00;99438.59;5014543;28;20057;-58
2023/12/09 03:54:00;;;;;;;27.63;9.77;;;;;;;2.78;100.00;99444.63;5024391;28;20052;-59
2023/12/09 03:56:30;;;;;;;24.33;9.45;;;;;;;2.79;100.00;99438.59;5014215;28;20076;-61
2023/12/09 03:59:01;;;;;;;24.52;8.35;;;;;;;2.80;100.00;99430.88;5024851;28;20045;-58
2023/12/09 04:01:32;;;;;;;20.77;7.40;;;;;;;2.78;100.00;99436.88;5014188;28;20048;-58
2023/12/09 04:04:02;;;;;;;23.08;7.75;;;;;;;2.78;100.00;99421.41;5024292;28;20049;-58
2023/12/09 04:06:33;;;;;;;21.30;7.68;;;;;;;2.81;100.00;99411.94;5006859;28;20679;-58
2023/12/09 04:09:06;;;;;;;25.48;7.65;;;;;;;2.76;100.00;99397.31;5023651;28;20069;-58
2023/12/09 04:11:36;;;;;;;24.75;9.38;;;;;;;2.80;100.00;99399.91;5012838;28;20065;-57
2023/12/09 04:14:06;;;;;;;24.38;10.65;;;;;;;2.85;100.00;99397.34;5023839;28;20131;-58
2023/12/09 04:16:37;;;;;;;35.45;10.20;;;;;;;2.90;100.00;99387.88;5013515;28;20091;-57
2023/12/09 04:19:07;;;;;;;17.38;8.35;;;;;;;2.93;100.00;99390.47;5020040;28;20086;-58
2023/12/09 04:21:39;;;;;;;25.85;10.57;;;;;;;2.95;100.00;99383.59;5007505;28;20458;-57
2023/12/09 04:24:11;;;;;;;18.83;9.85;;;;;;;2.96;100.00;99380.13;5024281;28;20165;-58
2023/12/09 04:26:42;;;;;;;21.85;8.65;;;;;;;2.93;100.00;99374.13;5013437;28;20045;-57
2023/12/09 04:29:12;;;;;;;26.90;9.20;;;;;;;2.68;100.00;99342.28;5023723;28;20060;-58
2023/12/09 04:31:44;;;;;;;25.27;8.05;;;;;;;2.90;100.00;99374.97;5009127;28;20056;-58
2023/12/09 04:34:14;;;;;;;17.27;7.63;;;;;;;2.84;100.00;99364.66;5012348;28;20453;-59
2023/12/09 04:36:45;;;;;;;14.80;8.15;;;;;;;2.81;100.00;99359.50;5001326;28;20056;-59
2023/12/09 04:39:17;;;;;;;18.45;7.97;;;;;;;2.80;100.00;99357.78;5015123;28;20152;-59
2023/12/09 04:41:48;;;;;;;18.23;8.40;;;;;;;2.80;100.00;99357.78;4996260;28;20059;-60
2023/12/09 04:44:18;;;;;;;16.88;8.77;;;;;;;2.84;100.00;99363.78;5014906;28;20061;-57
2023/12/09 04:46:49;;;;;;;18.90;9.00;;;;;;;2.88;100.00;99371.53;5003833;28;20438;-59
2023/12/09 04:49:19;;;;;;;23.13;8.80;;;;;;;2.92;100.00;99368.09;5017053;28;20069;-57
2023/12/09 04:51:50;;;;;;;20.83;8.82;;;;;;;2.96;100.00;99364.66;5007119;28;20266;-59
2023/12/09 04:54:22;;;;;;;21.50;6.97;;;;;;;3.09;100.00;99351.75;5014931;28;20041;-59
2023/12/09 04:56:53;;;;;;;15.30;6.43;;;;;;;3.12;100.00;99338.81;5003482;28;20045;-59
2023/12/09 04:59:23;;;;;;;19.20;6.03;;;;;;;3.15;100.00;99350.03;5021087;28;20072;-58
2023/12/09 05:01:54;;;;;;;14.32;6.35;;;;;;;3.18;100.00;99349.16;5012423;28;20044;-60
2023/12/09 05:04:24;;;;;;;15.43;6.97;;;;;;;3.19;100.00;99350.88;5020466;28;20049;-60
2023/12/09 05:06:55;;;;;;;23.50;6.43;;;;;;;3.16;100.00;99350.88;5011544;28;20049;-58
2023/12/09 05:09:27;;;;;;;18.75;7.80;;;;;;;3.19;100.00;99361.19;5019146;28;20110;-59
2023/12/09 05:11:57;;;;;;;23.75;7.00;;;;;;;3.17;100.00;99378.41;5022186;28;20442;-59
2023/12/09 05:14:28;;;;;;;23.85;7.60;;;;;;;3.15;100.00;99385.31;5010009;28;20074;-56
2023/12/09 05:16:59;;;;;;;20.33;8.10;;;;;;;3.10;100.00;99392.19;5018636;28;20057;-58
2023/12/09 05:19:29;;;;;;;26.35;8.43;;;;;;;3.03;100.00;99388.75;5009449;28;20172;-58
2023/12/09 05:22:00;;;;;;;20.67;6.68;;;;;;;3.01;100.00;99378.41;5021914;28;20053;-56
2023/12/09 05:24:32;;;;;;;16.92;8.52;;;;;;;3.01;100.00;99388.72;5001274;28;20537;-58
2023/12/09 05:27:03;;;;;;;20.15;7.68;;;;;;;2.91;100.00;99381.00;5014565;28;20056;-57
2023/12/09 05:29:33;;;;;;;22.48;7.60;;;;;;;3.01;100.00;99391.31;5002616;28;20083;-58
2023/12/09 05:32:04;;;;;;;15.20;7.80;;;;;;;3.00;100.00;99392.19;5013113;28;20095;-59
2023/12/09 05:34:34;;;;;;;18.02;8.07;;;;;;;3.01;100.00;99399.06;4999272;28;20204;-57
2023/12/09 05:37:05;;;;;;;22.38;10.02;;;;;;;3.00;100.00;99405.09;5009540;28;20385;-58
2023/12/09 05:39:37;;;;;;;24.15;8.85;;;;;;;3.04;100.00;99403.34;4999869;28;20155;-58
2023/12/09 05:42:07;;;;;;;21.20;8.98;;;;;;;3.09;100.00;99395.63;5023659;28;20063;-58
2023/12/09 05:44:38;;;;;;;17.65;8.82;;;;;;;3.14;100.00;99371.53;5015774;28;20651;-59
2023/12/09 05:47:08;;;;;;;23.90;8.18;;;;;;;3.24;100.00;99365.50;5027034;28;20167;-58
2023/12/09 05:49:39;;;;;;;25.88;8.85;;;;;;;2.94;100.00;99301.84;5014429;28;20176;-58
2023/12/09 05:52:09;;;;;;;28.83;9.48;;;;;;;3.34;100.00;99361.16;5024939;28;20167;-59
2023/12/09 05:54:41;;;;;;;29.63;9.85;;;;;;;3.36;100.00;99367.19;5015910;28;20045;-58
2023/12/09 05:57:12;;;;;;;28.85;9.43;;;;;;;3.36;100.00;99364.63;5026096;28;20075;-57
2023/12/09 05:59:42;;;;;;;22.40;8.88;;;;;;;3.40;100.00;99381.84;5017965;28;20064;-58
2023/12/09 06:02:13;;;;;;;22.58;7.45;;;;;;;3.41;100.00;99399.03;5029994;28;20159;-58
2023/12/09 06:04:43;;;;;;;24.58;7.40;;;;;;;3.42;100.00;99405.94;5015204;28;20080;-58
2023/12/09 06:07:14;;;;;;;23.65;8.25;;;;;;;3.40;100.00;99397.31;5025960;28;20052;-58
2023/12/09 06:09:46;;;;;;;25.80;8.10;;;;;;;3.41;100.00;99413.69;5017221;28;20049;-58
2023/12/09 06:12:16;;;;;;;24.42;7.85;;;;;;;3.39;100.00;99411.09;5030433;28;20076;-57
2023/12/09 06:14:47;;;;;;;21.42;7.78;;;;;;;3.40;100.00;99423.16;5019072;28;20064;-59
2023/12/09 06:17:17;;;;;;;22.63;8.50;;;;;;;3.41;100.00;99429.19;5029176;28;20436;-57
2023/12/09 06:19:48;;;;;;;24.20;7.30;;;;;;;3.40;100.00;99448.97;5017770;28;20057;-58
2023/12/09 06:22:18;;;;;;;29.23;8.82;;;;;;;3.37;100.00;99459.31;5030290;28;20061;-58
2023/12/09 06:24:51;;;;;;;22.27;8.27;;;;;;;3.36;100.00;99467.91;5019210;28;20048;-58
2023/12/09 06:27:21;;;;;;;31.17;10.02;;;;;;;3.35;100.00;99481.69;5030363;28;20049;-57
2023/12/09 06:29:52;;;;;;;20.00;8.65;;;;;;;3.30;100.00;99478.25;5016152;28;20134;-57
2023/12/09 06:32:23;;;;;;;28.70;8.75;;;;;;;3.27;100.00;99473.09;5029233;28;20491;-57
2023/12/09 06:34:54;;;;;;;24.88;8.70;;;;;;;3.26;100.00;99476.50;5015865;28;20064;-55
2023/12/09 06:37:24;;;;;;;25.95;8.52;;;;;;;3.26;100.00;99473.94;5019304;28;20475;-59
2023/12/09 06:39:56;;;;;;;29.55;9.32;;;;;;;3.26;100.00;99476.50;5017044;28;20064;-59
2023/12/09 06:42:27;;;;;;;24.05;8.50;;;;;;;3.25;100.00;99485.13;5018299;28;20056;-57
2023/12/09 06:44:58;;;;;;;24.67;9.80;;;;;;;3.25;100.00;99479.97;5027700;28;20136;-57
2023/12/09 06:47:28;;;;;;;25.88;9.40;;;;;;;3.23;100.00;99481.69;5008990;28;20483;-57
2023/12/09 06:49:59;;;;;;;27.45;10.75;;;;;;;3.20;100.00;99484.28;5027806;28;20053;-58
2023/12/09 06:52:30;;;;;;;26.20;12.27;;;;;;;3.16;100.00;99485.13;5017086;28;20487;-58
2023/12/09 06:55:03;;;;;;;28.15;11.57;;;;;;;3.16;100.00;99490.28;5026669;28;20053;-57
2023/12/09 06:57:33;;;;;;;28.30;11.90;;;;;;;3.12;100.00;99488.53;5019566;28;20056;-57
2023/12/09 07:00:07;;;;;;;25.90;12.05;;;;;;;3.02;100.00;99482.50;5026729;28;20053;-59
2023/12/09 07:02:38;;;;;;;20.17;10.90;;;;;;;3.06;100.00;99498.88;5018666;28;20045;-58
2023/12/09 07:05:26;;;;;;;25.05;11.80;;;;;;;3.03;100.00;99492.84;5027969;28;20490;-57
2023/12/09 07:07:56;;;;;;;23.15;9.77;;;;;;;3.00;100.00;99495.41;5015376;28;20123;-57
2023/12/09 07:10:28;;;;;;;22.80;10.68;;;;;;;3.00;100.00;99495.41;5017966;28;20052;-57
2023/12/09 07:12:59;;;;;;;20.98;9.45;;;;;;;2.94;100.00;99485.06;5019403;28;20056;-58
2023/12/09 07:15:29;;;;;;;18.77;9.73;;;;;;;2.98;100.00;99491.97;5004411;28;20507;-59
2023/12/09 07:18:00;;;;;;;23.88;10.20;;;;;;;2.98;100.00;99491.97;5022868;28;20131;-59
2023/12/09 07:20:31;;;;;;;23.23;11.00;;;;;;;3.02;100.00;99493.72;5018466;28;20395;-57
2023/12/09 07:23:01;;;;;;;19.27;10.98;;;;;;;3.03;100.00;99494.56;5029808;28;20079;-59
2023/12/09 07:25:33;;;;;;;22.60;10.43;;;;;;;3.03;100.00;99494.56;5009660;28;20118;-58
2023/12/09 07:28:04;;;;;;;20.63;10.75;;;;;;;3.01;100.00;99497.13;5028986;28;20142;-58
2023/12/09 07:30:35;;;;;;;22.77;11.32;;;;;;;2.97;100.00;99489.38;5019921;28;20055;-58
2023/12/09 07:33:05;;;;;;;26.52;11.90;;;;;;;2.99;100.00;99488.50;5029407;28;20052;-57
2023/12/09 07:35:36;;;;;;;24.00;10.82;;;;;;;2.99;100.00;99493.69;5013677;28;20047;-58
2023/12/09 07:38:06;;;;;;;15.55;8.80;;;;;;;2.94;100.00;99490.22;5031314;28;20058;-58
2023/12/09 07:40:39;;;;;;;23.80;10.20;;;;;;;2.91;100.00;99495.38;5019000;28;20056;-57
2023/12/09 07:43:09;;;;;;;21.15;10.35;;;;;;;2.90;100.00;99498.84;5027766;28;20045;-58
2023/12/09 07:45:40;;;;;;;19.83;10.45;;;;;;;2.89;100.00;99512.59;5019169;28;20075;-58
2023/12/09 07:48:11;;;;;;;22.63;9.75;;;;;;;2.86;100.00;99515.16;5029642;28;20192;-58
2023/12/09 07:50:42;;;;;;;16.85;9.80;;;;;;;2.86;100.00;99517.75;5016141;28;20136;-59
2023/12/09 07:53:12;;;;;;;14.93;6.53;;;;;;;2.80;100.00;99528.91;5028120;28;20081;-58
2023/12/09 07:55:45;;;;;;;12.02;6.38;;;;;;;2.77;100.00;99528.91;5010617;28;20106;-58
2023/12/09 07:58:15;;;;;;;9.85;6.25;;;;;;;2.76;100.00;99531.47;5026225;28;20070;-59
2023/12/09 08:00:46;;;;;;;11.27;6.38;;;;;;;2.75;100.00;99524.59;5016594;28;20297;-58
2023/12/09 08:03:16;;;;;;;10.80;6.35;;;;;;;2.71;100.00;99522.84;5030497;28;20052;-59
2023/12/09 08:05:47;;;;;;;10.70;5.65;;;;;;;2.69;100.00;99534.88;5019451;28;20218;-58
2023/12/09 08:08:17;;;;;;;10.02;4.57;;;;;;;2.67;100.00;99541.75;5027972;28;20063;-59
2023/12/09 08:10:49;;;;;;;10.40;4.57;;;;;;;2.63;100.00;99529.72;5014936;28;20355;-59
2023/12/09 08:13:20;;;;;;;13.48;4.22;;;;;;;2.59;100.00;99545.16;5030198;28;20448;-59
2023/12/09 08:15:50;;;;;;;7.57;4.07;;;;;;;2.58;100.00;99543.44;5016626;28;20052;-59
2023/12/09 08:18:21;;;;;;;7.00;3.65;;;;;;;2.57;100.00;99535.69;5030359;28;20059;-59
2023/12/09 08:20:51;;;;;;;5.18;3.20;;;;;;;2.57;100.00;99539.16;5017645;28;20063;-58
2023/12/09 08:23:22;;;;;;;8.43;3.60;;;;;;;2.54;100.00;99546.84;5026547;28;20057;-59
2023/12/09 08:25:55;;;;;;;5.15;3.58;;;;;;;2.46;100.00;99530.50;5009381;28;20061;-59
2023/12/09 08:28:27;;;;;;;9.95;4.20;;;;;;;2.51;100.00;99541.69;5014015;28;20056;-58
2023/12/09 08:30:57;;;;;;;8.55;4.13;;;;;;;2.49;100.00;99543.38;5025755;28;20085;-60
2023/12/09 08:33:28;;;;;;;8.38;4.03;;;;;;;2.45;100.00;99541.66;5016185;28;20053;-58
2023/12/09 08:35:58;;;;;;;10.57;3.92;;;;;;;2.43;100.00;99553.69;5025363;28;20055;-58
2023/12/09 08:38:29;;;;;;;6.70;2.88;;;;;;;2.39;100.00;99557.09;5011792;28;20133;-58
2023/12/09 08:41:01;;;;;;;6.38;2.90;;;;;;;2.38;100.00;99555.38;5020859;28;20056;-59
2023/12/09 08:43:31;;;;;;;6.55;3.03;;;;;;;2.36;100.00;99564.81;5011981;28;20063;-59
2023/12/09 08:46:02;;;;;;;6.55;2.97;;;;;;;2.35;100.00;99570.84;5024367;28;20049;-59
2023/12/09 08:48:32;;;;;;;7.93;3.72;;;;;;;2.33;100.00;99562.22;5017228;28;20056;-58
2023/12/09 08:51:03;;;;;;;7.72;3.88;;;;;;;2.31;100.00;99566.50;5029373;28;20053;-58
2023/12/09 08:53:34;;;;;;;6.68;2.80;;;;;;;2.28;100.00;99559.63;5020042;28;20055;-60
2023/12/09 08:56:07;;;;;;;6.47;2.95;;;;;;;2.21;100.00;99563.00;5025741;28;20101;-58
2023/12/09 08:58:37;;;;;;;9.07;2.78;;;;;;;2.15;100.00;99569.00;5008521;28;20121;-58
2023/12/09 09:01:08;;;;;;;5.10;2.70;;;;;;;2.14;100.00;99576.72;5029293;28;20767;-58
2023/12/09 09:03:38;;;;;;;6.57;2.38;;;;;;;2.15;100.00;99588.75;5017602;28;20096;-58
2023/12/09 09:06:09;;;;;;;5.25;2.42;;;;;;;2.13;100.00;99586.16;5024021;28;20407;-58
2023/12/09 09:08:40;;;;;;;6.10;2.72;;;;;;;2.06;100.00;99581.81;5016869;28;20063;-59
2023/12/09 09:11:13;;;;;;;7.55;3.72;;;;;;;2.05;100.00;99571.50;5029445;28;20053;-58
2023/12/09 09:13:43;;;;;;;7.95;2.70;;;;;;;2.10;100.00;99588.72;5014285;28;20049;-58
2023/12/09 09:16:16;;;;;;;6.57;2.58;;;;;;;2.10;100.00;99596.47;5021351;28;20044;-58
2023/12/09 09:18:46;;;;;;;5.68;2.95;;;;;;;2.13;100.00;99598.19;5012057;28;20774;-60
2023/12/09 09:21:17;;;;;;;5.60;2.60;;;;;;;2.09;100.00;99599.88;5023211;28;20063;-58
2023/12/09 09:23:49;;;;;;;7.38;2.78;;;;;;;2.03;100.00;99586.09;5011940;28;20057;-59
2023/12/09 09:26:21;;;;;;;5.53;2.63;;;;;;;2.06;100.00;99593.84;5025104;28;20063;-59
2023/12/09 09:28:52;;;;;;;5.00;3.05;;;;;;;1.78;100.00;99556.72;5014572;28;20053;-58
2023/12/09 09:31:23;;;;;;;3.13;2.30;;;;;;;1.97;100.00;99610.06;5024510;28;20067;-59
2023/12/09 09:33:53;;;;;;;3.20;2.40;;;;;;;1.97;100.00;99604.94;5014961;28;20123;-58
2023/12/09 09:36:24;;;;;;;6.38;2.40;;;;;;;1.93;100.00;99623.81;5024654;28;20060;-59
2023/12/09 09:38:54;;;;;;;5.63;2.60;;;;;;;1.90;100.00;99618.63;5014254;28;20130;-60
2023/12/09 09:41:33;;;;;;;4.68;3.00;;;;;;;1.91;100.00;99620.34;5022922;28;20534;-59
2023/12/09 09:44:08;;;;;;;10.20;2.80;;;;;;;1.89;100.00;99624.63;5014981;28;20052;-59
2023/12/09 09:46:40;;;;;;;4.25;2.40;;;;;;;1.90;100.00;99628.94;5014365;28;20045;-59
2023/12/09 09:49:12;;;;;;;7.20;2.95;;;;;;;1.90;100.00;99631.53;5020123;28;20048;-59
2023/12/09 09:51:45;;;;;;;4.68;3.38;;;;;;;1.87;100.00;99640.09;5015917;28;20052;-59
2023/12/09 09:54:21;;;;;;;8.98;5.32;;;;;;;1.85;100.00;99635.78;5024053;28;20053;-59
2023/12/09 09:56:58;;;;;;;7.03;3.33;;;;;;;1.80;100.00;99650.28;5010489;28;20114;-59
2023/12/09 09:59:29;;;;;;;4.60;2.72;;;;;;;1.70;100.00;99647.66;5012021;28;20522;-58
2023/12/09 10:01:59;;;;;;;5.60;2.85;;;;;;;1.71;100.00;99654.53;5024681;28;20085;-58
2023/12/09 10:04:30;;;;;;;5.05;2.72;;;;;;;1.66;100.00;99655.31;5013063;28;20066;-58
2023/12/09 10:07:02;;;;;;;4.88;2.97;;;;;;;1.70;100.00;99663.09;5022006;28;20098;-58
2023/12/09 10:09:33;;;;;;;6.72;3.35;;;;;;;1.66;100.00;99645.88;5007574;28;20053;-58
2023/12/09 10:12:06;;;;;;;10.52;3.03;;;;;;;1.64;100.00;99650.16;5025407;28;20063;-59
2023/12/09 10:14:37;;;;;;;5.80;3.05;;;;;;;1.62;100.00;99649.31;5006210;28;20056;-59
2023/12/09 10:17:07;;;;;;;4.25;2.67;;;;;;;1.58;100.00;99647.53;5016057;28;20435;-59
2023/12/09 10:19:38;;;;;;;7.15;3.22;;;;;;;1.56;100.00;99654.38;5014781;28;20144;-58
2023/12/09 10:22:09;;;;;;;7.13;3.15;;;;;;;1.56;100.00;99669.81;5023765;28;20044;-58
2023/12/09 10:24:39;;;;;;;3.95;2.42;;;;;;;1.54;100.00;99681.81;5016934;28;20150;-59
2023/12/09 10:27:22;;;;;;;7.28;2.88;;;;;;;1.59;100.00;99680.16;5026524;28;20049;-59
2023/12/09 10:29:53;;;;;;;7.32;2.75;;;;;;;1.57;100.00;99681.84;5016118;28;20075;-59
2023/12/09 10:32:25;;;;;;;7.82;3.10;;;;;;;1.50;100.00;99690.38;5022959;28;20064;-59
2023/12/09 10:34:56;;;;;;;5.78;2.83;;;;;;;1.46;100.00;99688.59;5013910;28;20172;-59
2023/12/09 10:37:31;;;;;;;8.80;3.10;;;;;;;1.36;100.00;99681.63;5015429;28;20148;-59
2023/12/09 10:40:06;;;;;;;6.15;3.15;;;;;;;1.28;100.00;99684.97;5024039;28;20140;-59
2023/12/09 10:42:40;;;;;;;6.30;3.25;;;;;;;1.26;100.00;99675.50;5010494;28;20118;-59
2023/12/09 10:45:11;;;;;;;13.20;5.60;;;;;;;1.37;100.00;99685.91;5030300;28;20613;-58
2023/12/09 10:47:41;;;;;;;6.78;3.30;;;;;;;1.40;100.00;99693.66;5020166;28;20055;-58
2023/12/09 10:50:12;;;;;;;7.82;3.33;;;;;;;1.35;100.00;99690.16;5027473;28;20620;-59
2023/12/09 10:52:43;;;;;;;7.15;3.00;;;;;;;1.37;100.00;99694.50;5020092;28;20064;-59
2023/12/09 10:55:14;;;;;;;9.35;3.35;;;;;;;1.29;100.00;99676.38;5030244;28;20486;-59
2023/12/09 10:57:48;;;;;;;7.18;3.20;;;;;;;1.35;100.00;99690.16;5019210;28;20506;-59
2023/12/09 11:00:20;;;;;;;7.60;3.13;;;;;;;1.33;100.00;99686.75;5031361;28;20083;-59
2023/12/09 11:02:52;;;;;;;6.90;3.30;;;;;;;1.33;100.00;99689.31;5019966;28;20044;-59
2023/12/09 11:05:23;;;;;;;10.15;3.63;;;;;;;1.28;100.00;99690.13;5026895;28;20136;-59
2023/12/09 11:07:57;;;;;;;5.43;3.33;;;;;;;1.19;100.00;99695.13;5013854;28;20076;-59
2023/12/09 11:10:28;;;;;;;10.45;3.30;;;;;;;1.07;100.00;99694.97;5018132;28;20084;-59
2023/12/09 11:13:03;;;;;;;11.00;5.28;;;;;;;1.03;100.00;99698.38;5030538;28;20110;-59
2023/12/09 11:15:34;;;;;;;12.60;5.10;;;;;;;1.02;100.00;99696.63;5019659;28;20099;-59
2023/12/09 11:18:10;;;;;;;13.10;4.35;;;;;;;0.96;100.00;99706.84;5030268;28;20467;-58
2023/12/09 11:20:42;;;;;;;15.10;4.35;;;;;;;0.27;100.00;99611.59;5019550;28;20060;-60
2023/12/09 11:23:13;;;;;;;13.00;4.57;;;;;;;0.90;100.00;99711.91;5029045;28;20057;-60
2023/12/09 11:25:45;;;;;;;10.57;4.35;;;;;;;0.86;100.00;99722.16;5016354;28;20057;-59
2023/12/09 11:28:17;;;;;;;10.05;4.97;;;;;;;0.82;99.87;99720.41;5029807;28;20084;-59
2023/12/09 11:30:48;;;;;;;16.48;6.53;;;;;;;0.81;98.69;99728.94;5015634;28;20055;-59
2023/12/09 11:33:19;;;;;;;11.73;4.60;;;;;;;0.76;98.00;99730.59;5029570;28;20049;-59
2023/12/09 11:35:50;;;;;;;9.80;4.03;;;;;;;0.72;96.12;99744.22;5019366;28;20055;-59
2023/12/09 11:38:21;;;;;;;12.82;3.97;;;;;;;0.70;96.04;99740.78;5026126;28;20617;-59
2023/12/09 11:40:52;;;;;;;11.30;4.93;;;;;;;0.64;94.87;99758.69;5017714;28;20844;-59
2023/12/09 11:43:24;;;;;;;13.68;4.18;;;;;;;0.62;94.72;99757.78;5027975;28;20068;-59
2023/12/09 11:45:55;;;;;;;13.48;4.35;;;;;;;0.61;94.09;99761.22;5015496;28;20127;-59